Time;durP1;ratioP1;P1;durP2;ratioP2;P2;SDS_P1;SDS_P2;PMS_P1;PMS_P2;Temp;Humidity;BMP_temperature;BMP_pressure;BME280_temperature;BME280_humidity;BME280_pressure;Samples;Min_cycle;Max_cycle;Signal;HPM_P1;HPM_P2
2022/07/18 00:01:40;;;;;;;5.55;2.35;;;20.20;93.00;;;;;;5080907;28;20036;-70
2022/07/18 00:04:06;;;;;;;6.78;2.15;;;20.20;93.10;;;;;;5088494;28;20024;-71
2022/07/18 00:06:32;;;;;;;3.78;2.35;;;20.20;93.30;;;;;;5083608;28;20127;-71
2022/07/18 00:08:57;;;;;;;2.97;2.20;;;20.20;93.00;;;;;;5087141;28;20020;-70
2022/07/18 00:11:23;;;;;;;3.47;2.38;;;20.10;93.40;;;;;;5086393;28;20029;-71
2022/07/18 00:13:52;;;;;;;3.72;2.20;;;20.10;93.40;;;;;;5083818;28;20533;-70
2022/07/18 00:16:18;;;;;;;3.38;2.60;;;20.10;93.20;;;;;;5092431;28;20032;-70
2022/07/18 00:18:44;;;;;;;2.40;2.20;;;20.10;93.00;;;;;;5080812;28;20028;-70
2022/07/18 00:21:10;;;;;;;6.07;2.22;;;20.10;92.90;;;;;;5084628;28;20034;-69
2022/07/18 00:23:36;;;;;;;3.13;2.25;;;20.10;93.00;;;;;;5087640;28;20040;-71
2022/07/18 00:26:01;;;;;;;6.35;2.20;;;20.00;93.50;;;;;;5079326;28;20017;-70
2022/07/18 00:28:27;;;;;;;6.60;2.50;;;20.00;93.20;;;;;;5085667;28;20055;-70
2022/07/18 00:30:53;;;;;;;3.55;2.53;;;20.00;93.80;;;;;;5086115;28;20012;-70
2022/07/18 00:33:18;;;;;;;4.90;2.67;;;19.90;93.30;;;;;;5090290;28;20031;-70
2022/07/18 00:35:44;;;;;;;5.10;2.47;;;19.90;93.20;;;;;;5082162;28;20028;-70
2022/07/18 00:38:09;;;;;;;3.47;2.55;;;19.90;94.10;;;;;;5080751;28;20047;-69
2022/07/18 00:40:35;;;;;;;4.70;2.63;;;19.90;94.00;;;;;;5088046;28;20461;-70
2022/07/18 00:43:01;;;;;;;6.50;2.80;;;19.80;93.50;;;;;;5082378;28;20110;-70
2022/07/18 00:45:27;;;;;;;4.18;2.72;;;19.70;93.70;;;;;;5088172;28;20086;-70
2022/07/18 00:47:52;;;;;;;7.05;3.08;;;19.80;93.80;;;;;;5111300;27;20074;-70
2022/07/18 00:50:19;;;;;;;5.45;2.85;;;19.70;94.00;;;;;;5090473;28;20023;-70
2022/07/18 00:52:45;;;;;;;5.65;2.30;;;19.70;93.50;;;;;;5081426;28;20035;-70
2022/07/18 00:55:11;;;;;;;4.22;2.45;;;19.70;94.60;;;;;;5084865;28;20020;-70
2022/07/18 00:57:39;;;;;;;4.05;2.40;;;19.50;94.70;;;;;;5092442;27;20386;-70
2022/07/18 01:02:52;;;;;;;3.00;2.30;;;19.30;95.80;;;;;;5083427;28;20074;-70
2022/07/18 01:05:18;;;;;;;4.05;2.72;;;19.10;95.90;;;;;;5088618;28;20045;-70
2022/07/18 01:07:44;;;;;;;3.60;2.65;;;19.10;95.70;;;;;;5083951;28;20031;-70
2022/07/18 01:10:10;;;;;;;5.13;2.53;;;19.00;95.00;;;;;;5078119;28;20115;-71
2022/07/18 01:12:35;;;;;;;3.72;3.00;;;18.90;96.40;;;;;;5090377;28;20032;-71
2022/07/18 01:15:02;;;;;;;5.15;2.72;;;19.00;95.60;;;;;;5082815;28;20087;-70
2022/07/18 01:17:28;;;;;;;4.75;2.35;;;19.00;95.50;;;;;;5087124;28;20038;-70
2022/07/18 01:19:53;;;;;;;4.63;3.00;;;19.00;95.10;;;;;;5088083;28;20385;-70
2022/07/18 01:22:20;;;;;;;5.05;3.03;;;19.10;94.70;;;;;;5092658;28;20072;-70
2022/07/18 01:24:47;;;;;;;4.38;2.97;;;19.10;95.00;;;;;;5085628;28;20024;-70
2022/07/18 01:27:21;;;;;;;4.15;3.05;;;19.10;95.00;;;;;;5081163;28;20025;-70
2022/07/18 01:29:48;;;;;;;7.25;3.00;;;19.00;94.90;;;;;;5083165;28;20385;-70
2022/07/18 01:32:15;;;;;;;6.50;3.35;;;19.00;94.90;;;;;;5081769;28;20502;-71
2022/07/18 01:34:41;;;;;;;4.15;3.00;;;19.00;94.80;;;;;;5082576;28;20093;-70
2022/07/18 01:37:08;;;;;;;5.50;2.65;;;19.00;94.40;;;;;;5084889;28;20362;-70
2022/07/18 01:39:35;;;;;;;6.63;2.83;;;19.00;94.80;;;;;;5084603;28;20440;-70
2022/07/18 01:42:07;;;;;;;4.93;2.90;;;18.90;94.60;;;;;;5083498;28;20043;-70
2022/07/18 01:44:34;;;;;;;4.65;2.75;;;18.90;94.80;;;;;;5085127;28;20088;-70
2022/07/18 01:47:00;;;;;;;2.80;2.42;;;18.80;95.40;;;;;;5081692;28;20025;-69
2022/07/18 01:49:26;;;;;;;5.88;2.65;;;18.70;96.00;;;;;;5112780;27;20218;-71
2022/07/18 01:51:53;;;;;;;3.88;2.65;;;18.60;96.40;;;;;;5087368;28;20107;-69
2022/07/18 01:54:27;;;;;;;5.32;2.60;;;18.60;95.40;;;;;;5088379;28;20028;-70
2022/07/18 01:56:52;;;;;;;4.90;2.85;;;18.60;95.80;;;;;;5088454;28;20118;-70
2022/07/18 01:59:19;;;;;;;7.03;3.47;;;18.60;96.60;;;;;;5081870;28;20087;-70
2022/07/18 02:01:45;;;;;;;6.18;2.63;;;18.50;97.20;;;;;;5088282;28;20031;-72
2022/07/18 02:04:11;;;;;;;4.30;2.75;;;18.40;97.20;;;;;;5086909;28;20016;-72
2022/07/18 02:06:37;;;;;;;4.60;2.63;;;18.30;97.20;;;;;;5084759;28;20024;-71
2022/07/18 02:09:04;;;;;;;3.50;2.88;;;18.30;97.00;;;;;;5082708;28;20413;-71
2022/07/18 02:11:30;;;;;;;3.45;3.00;;;18.20;97.70;;;;;;5079436;28;20016;-71
2022/07/18 02:13:56;;;;;;;6.90;3.53;;;18.20;97.80;;;;;;5080404;28;20103;-71
2022/07/18 02:16:21;;;;;;;3.58;2.50;;;18.20;97.80;;;;;;5090277;28;20533;-71
2022/07/18 02:18:47;;;;;;;4.40;2.72;;;18.10;98.00;;;;;;5085219;28;20543;-71
2022/07/18 02:21:15;;;;;;;5.68;2.88;;;18.00;98.00;;;;;;5077421;28;20032;-71
2022/07/18 02:23:42;;;;;;;6.45;2.85;;;18.10;96.70;;;;;;5081989;28;20165;-71
2022/07/18 02:26:08;;;;;;;3.38;2.80;;;18.20;96.80;;;;;;5079444;28;20017;-70
2022/07/18 02:28:35;;;;;;;5.10;2.85;;;18.20;96.80;;;;;;5088543;28;20115;-70
2022/07/18 02:31:00;;;;;;;5.60;2.85;;;18.20;96.70;;;;;;5076803;28;20027;-71
2022/07/18 02:33:26;;;;;;;6.47;3.10;;;18.20;96.50;;;;;;5083922;28;20036;-70
2022/07/18 02:35:52;;;;;;;9.60;3.80;;;18.20;96.50;;;;;;5081377;28;20058;-71
2022/07/18 02:38:18;;;;;;;7.93;3.47;;;18.10;96.60;;;;;;5088111;28;20017;-70
2022/07/18 02:40:43;;;;;;;4.65;3.20;;;18.10;96.60;;;;;;5080258;28;20025;-71
2022/07/18 02:43:09;;;;;;;4.70;3.10;;;18.10;96.80;;;;;;5087812;28;20190;-71
2022/07/18 02:45:35;;;;;;;8.57;3.10;;;18.10;96.50;;;;;;5084540;28;20062;-70
2022/07/18 02:48:00;;;;;;;3.97;2.80;;;18.10;96.70;;;;;;5087303;28;20031;-70
2022/07/18 02:50:26;;;;;;;3.53;2.47;;;18.10;96.60;;;;;;5083692;28;20036;-71
2022/07/18 02:52:52;;;;;;;4.13;3.05;;;18.00;96.80;;;;;;5084229;28;20044;-71
2022/07/18 02:55:18;;;;;;;4.25;3.03;;;17.90;97.00;;;;;;5092540;28;20496;-70
2022/07/18 02:57:43;;;;;;;4.72;2.67;;;17.90;96.80;;;;;;5085793;28;20024;-71
2022/07/18 03:00:11;;;;;;;4.43;2.92;;;17.90;96.80;;;;;;5079610;28;20028;-71
2022/07/18 03:02:37;;;;;;;5.10;3.22;;;17.90;98.00;;;;;;5086599;28;20481;-71
2022/07/18 03:05:04;;;;;;;3.80;2.95;;;17.80;98.30;;;;;;5086654;28;20457;-71
2022/07/18 03:07:31;;;;;;;4.75;3.00;;;17.70;99.20;;;;;;5083375;28;20031;-71
2022/07/18 03:09:56;;;;;;;4.03;2.75;;;17.60;98.60;;;;;;5077844;28;20089;-70
2022/07/18 03:12:22;;;;;;;4.90;3.20;;;17.60;99.10;;;;;;5090823;28;20100;-71
2022/07/18 03:14:48;;;;;;;3.10;2.50;;;17.50;99.40;;;;;;5082165;28;20031;-70
2022/07/18 03:17:13;;;;;;;3.30;2.53;;;17.60;99.20;;;;;;5084996;28;20083;-71
2022/07/18 03:19:39;;;;;;;7.40;2.95;;;17.50;99.00;;;;;;5084121;28;20021;-71
2022/07/18 03:22:05;;;;;;;4.50;3.35;;;17.60;99.00;;;;;;5085230;28;20037;-71
2022/07/18 03:24:31;;;;;;;4.28;3.45;;;17.50;98.80;;;;;;5082676;28;20020;-71
2022/07/18 03:26:56;;;;;;;7.88;4.05;;;17.50;98.20;;;;;;5080420;28;20048;-71
2022/07/18 03:29:23;;;;;;;5.70;3.85;;;17.50;97.90;;;;;;5085204;28;20382;-71
2022/07/18 03:31:48;;;;;;;4.90;3.65;;;17.60;97.80;;;;;;5082217;28;20035;-71
2022/07/18 03:34:14;;;;;;;6.15;3.53;;;17.50;97.80;;;;;;5082797;28;20024;-71
2022/07/18 03:36:40;;;;;;;3.85;3.10;;;17.50;98.00;;;;;;5077729;28;20051;-71
2022/07/18 03:39:09;;;;;;;5.22;3.28;;;17.40;98.90;;;;;;5085713;28;20092;-71
2022/07/18 03:41:35;;;;;;;4.75;3.75;;;17.30;98.40;;;;;;5086609;28;20035;-71
2022/07/18 03:44:02;;;;;;;3.47;2.65;;;17.30;98.20;;;;;;5082651;28;20021;-71
2022/07/18 03:46:27;;;;;;;6.28;3.30;;;17.30;97.80;;;;;;5090236;28;20028;-71
2022/07/18 03:48:53;;;;;;;6.40;3.67;;;17.30;98.00;;;;;;5087589;28;20103;-71
2022/07/18 03:51:19;;;;;;;5.85;3.88;;;17.30;98.10;;;;;;5088169;28;20048;-71
2022/07/18 03:53:45;;;;;;;6.07;3.70;;;17.30;98.20;;;;;;5090077;28;20085;-71
2022/07/18 03:56:10;;;;;;;8.65;3.90;;;17.30;98.20;;;;;;5093363;28;20083;-70
2022/07/18 03:58:36;;;;;;;5.63;4.07;;;17.40;97.70;;;;;;5088142;28;20032;-70
2022/07/18 04:01:01;;;;;;;12.35;3.67;;;17.40;97.90;;;;;;5082827;28;20029;-71
2022/07/18 04:03:27;;;;;;;5.53;4.05;;;17.30;99.90;;;;;;5090097;28;20082;-71
2022/07/18 04:05:53;;;;;;;7.70;4.22;;;17.20;99.80;;;;;;5093461;28;20465;-70
2022/07/18 04:08:18;;;;;;;5.47;4.13;;;17.10;98.50;;;;;;5085095;28;20035;-72
2022/07/18 04:10:44;;;;;;;6.15;3.78;;;17.10;97.80;;;;;;5083279;28;20027;-72
2022/07/18 04:13:10;;;;;;;4.90;3.85;;;17.10;98.10;;;;;;5086090;28;20469;-70
2022/07/18 04:15:36;;;;;;;7.65;4.20;;;17.20;97.90;;;;;;5082136;28;20701;-68
2022/07/18 04:18:03;;;;;;;10.68;4.28;;;17.10;98.00;;;;;;5088919;28;20107;-71
2022/07/18 04:20:29;;;;;;;9.48;4.70;;;17.10;98.40;;;;;;5089241;28;20027;-72
2022/07/18 04:23:00;;;;;;;5.82;4.10;;;17.10;98.10;;;;;;5088030;28;20033;-70
2022/07/18 04:25:28;;;;;;;6.90;4.53;;;17.10;98.90;;;;;;5087743;28;20025;-68
2022/07/18 04:27:54;;;;;;;6.72;4.40;;;17.00;98.50;;;;;;5087107;28;20024;-68
2022/07/18 04:30:23;;;;;;;7.68;4.35;;;17.00;98.40;;;;;;5090948;28;20038;-68
2022/07/18 04:32:49;;;;;;;6.05;4.38;;;17.00;98.60;;;;;;5088380;28;20083;-68
2022/07/18 04:35:14;;;;;;;11.00;3.83;;;17.00;98.60;;;;;;5113264;27;20579;-68
2022/07/18 04:37:41;;;;;;;6.43;3.65;;;17.00;98.70;;;;;;5084759;28;20025;-68
2022/07/18 04:40:08;;;;;;;9.50;3.45;;;17.10;98.50;;;;;;5090247;28;20480;-68
2022/07/18 04:42:34;;;;;;;6.60;3.88;;;17.00;98.70;;;;;;5082463;28;20503;-68
2022/07/18 04:45:00;;;;;;;6.13;3.17;;;17.10;98.70;;;;;;5082471;28;20046;-68
2022/07/18 04:47:27;;;;;;;6.80;4.20;;;17.10;98.80;;;;;;5088483;28;20452;-67
2022/07/18 04:49:53;;;;;;;5.53;4.10;;;17.00;99.10;;;;;;5089839;28;20023;-68
2022/07/18 04:52:19;;;;;;;5.13;3.53;;;17.00;99.30;;;;;;5083624;28;20047;-67
2022/07/18 04:54:44;;;;;;;5.18;3.20;;;17.00;99.40;;;;;;5084674;28;20468;-68
2022/07/18 04:57:11;;;;;;;6.43;3.40;;;16.90;99.10;;;;;;5089608;28;20054;-68
2022/07/18 04:59:38;;;;;;;7.45;3.25;;;17.00;99.80;;;;;;5084110;27;20422;-67
2022/07/18 05:02:04;;;;;;;6.22;4.03;;;16.90;99.30;;;;;;5084097;28;20074;-67
2022/07/18 05:04:30;;;;;;;5.70;3.78;;;16.90;99.50;;;;;;5091683;28;20148;-69
2022/07/18 05:06:56;;;;;;;7.97;3.00;;;17.00;99.40;;;;;;5082047;28;20095;-67
2022/07/18 05:09:21;;;;;;;4.88;3.13;;;17.10;99.40;;;;;;5088276;28;20024;-68
2022/07/18 05:11:47;;;;;;;5.05;3.25;;;17.00;99.80;;;;;;5085237;28;20020;-68
2022/07/18 05:14:12;;;;;;;4.80;3.50;;;17.00;99.90;;;;;;5088178;28;20035;-67
2022/07/18 05:16:38;;;;;;;7.10;3.78;;;17.00;99.90;;;;;;5083434;28;20038;-67
2022/07/18 05:19:04;;;;;;;3.70;3.33;;;17.10;99.90;;;;;;5085385;28;20024;-68
2022/07/18 05:21:30;;;;;;;6.22;3.83;;;17.10;99.90;;;;;;5092532;28;20028;-68
2022/07/18 05:23:56;;;;;;;6.70;3.83;;;17.10;99.90;;;;;;5080930;28;20031;-68
2022/07/18 05:26:22;;;;;;;6.50;3.35;;;17.10;99.90;;;;;;5078846;28;20016;-68
2022/07/18 05:28:47;;;;;;;8.93;4.20;;;17.10;99.90;;;;;;5086921;28;20032;-67
2022/07/18 05:31:13;;;;;;;10.02;3.75;;;17.20;99.90;;;;;;5085243;28;20016;-68
2022/07/18 05:33:39;;;;;;;9.30;3.63;;;17.20;99.90;;;;;;5086052;28;20081;-70
2022/07/18 05:36:05;;;;;;;6.18;3.88;;;17.30;99.90;;;;;;5081084;28;20031;-70
2022/07/18 05:38:31;;;;;;;5.90;3.10;;;17.30;99.90;;;;;;5091243;28;20019;-68
2022/07/18 05:40:56;;;;;;;12.50;4.32;;;17.30;99.90;;;;;;5088441;28;20501;-68
2022/07/18 05:43:22;;;;;;;8.38;3.67;;;17.40;99.90;;;;;;5086733;28;20032;-71
2022/07/18 05:45:48;;;;;;;11.02;3.95;;;17.40;99.90;;;;;;5084282;28;20023;-68
2022/07/18 05:48:13;;;;;;;11.00;3.67;;;17.50;99.90;;;;;;5080086;28;20033;-69
2022/07/18 05:50:39;;;;;;;5.85;3.88;;;17.50;99.90;;;;;;5093884;28;20022;-67
2022/07/18 05:53:05;;;;;;;11.95;4.32;;;17.50;99.90;;;;;;5080061;28;20484;-70
2022/07/18 05:55:30;;;;;;;10.13;4.57;;;17.50;99.90;;;;;;5083287;28;20046;-70
2022/07/18 05:57:56;;;;;;;8.90;5.43;;;17.60;99.90;;;;;;5084041;28;20060;-70
2022/07/18 06:00:22;;;;;;;9.05;4.60;;;17.70;99.90;;;;;;5086908;28;20473;-69
2022/07/18 06:02:48;;;;;;;13.35;3.53;;;17.70;99.90;;;;;;5084662;28;20043;-70
2022/07/18 06:05:14;;;;;;;9.63;4.15;;;17.80;99.90;;;;;;5086576;28;20032;-70
2022/07/18 06:07:40;;;;;;;6.32;4.68;;;17.90;99.90;;;;;;5083436;28;20449;-70
2022/07/18 06:10:06;;;;;;;15.85;4.90;;;17.90;99.90;;;;;;5076671;28;20025;-71
2022/07/18 06:12:32;;;;;;;12.60;4.63;;;17.90;99.90;;;;;;5086635;28;20411;-68
2022/07/18 06:14:58;;;;;;;17.30;4.22;;;17.90;99.90;;;;;;5089954;28;20020;-68
2022/07/18 06:17:24;;;;;;;8.98;4.85;;;17.90;99.90;;;;;;5082640;28;20106;-69
2022/07/18 06:19:49;;;;;;;13.82;6.03;;;18.00;99.90;;;;;;5080208;28;20039;-70
2022/07/18 06:22:15;;;;;;;11.90;6.13;;;18.10;99.90;;;;;;5086038;28;20032;-70
2022/07/18 06:24:41;;;;;;;13.73;5.85;;;18.10;99.90;;;;;;5088023;28;20032;-71
2022/07/18 06:27:06;;;;;;;9.38;4.40;;;18.20;99.90;;;;;;5080255;28;20504;-71
2022/07/18 06:29:32;;;;;;;10.77;4.95;;;18.30;99.90;;;;;;5084403;28;20051;-71
2022/07/18 06:31:58;;;;;;;11.25;4.80;;;18.40;99.90;;;;;;5079941;28;20040;-70
2022/07/18 06:34:23;;;;;;;16.92;4.63;;;18.40;99.90;;;;;;5089233;28;20229;-71
2022/07/18 06:36:49;;;;;;;11.88;4.88;;;18.50;99.90;;;;;;5081982;28;20028;-72
2022/07/18 06:39:18;;;;;;;8.98;5.03;;;18.50;99.90;;;;;;5085546;28;20028;-72
2022/07/18 06:41:44;;;;;;;11.65;6.30;;;18.60;99.90;;;;;;5085903;28;20024;-71
2022/07/18 06:44:10;;;;;;;10.50;5.60;;;18.70;99.90;;;;;;5084156;28;20024;-72
2022/07/18 06:46:36;;;;;;;10.00;4.80;;;18.80;99.90;;;;;;5085566;28;20028;-71
2022/07/18 06:49:03;;;;;;;15.00;5.55;;;18.90;99.90;;;;;;5084522;28;20029;-72
2022/07/18 06:51:29;;;;;;;12.40;5.57;;;19.00;99.90;;;;;;5086631;28;20055;-72
2022/07/18 06:53:54;;;;;;;12.65;6.20;;;19.00;99.90;;;;;;5087021;28;20028;-72
2022/07/18 06:56:20;;;;;;;16.65;6.88;;;19.10;99.90;;;;;;5080279;28;20039;-72
2022/07/18 06:58:48;;;;;;;15.82;6.40;;;19.30;99.90;;;;;;5085444;28;20024;-71
2022/07/18 07:01:15;;;;;;;11.68;5.07;;;19.50;99.90;;;;;;5078974;28;20514;-73
2022/07/18 07:03:41;;;;;;;8.30;5.50;;;19.60;99.90;;;;;;5084151;28;20020;-73
2022/07/18 07:06:07;;;;;;;12.27;5.57;;;19.90;99.90;;;;;;5081420;28;20047;-72
2022/07/18 07:08:33;;;;;;;11.77;5.03;;;20.00;99.90;;;;;;5079571;28;20020;-72
2022/07/18 07:10:59;;;;;;;12.07;6.28;;;20.20;99.90;;;;;;5075754;28;20020;-71
2022/07/18 07:13:25;;;;;;;11.68;4.85;;;20.40;99.90;;;;;;5087874;28;20036;-71
2022/07/18 07:15:51;;;;;;;14.20;5.20;;;20.60;99.90;;;;;;5083200;28;20020;-73
2022/07/18 07:18:16;;;;;;;11.57;6.05;;;20.70;99.90;;;;;;5088786;28;20027;-73
2022/07/18 07:20:42;;;;;;;19.25;5.95;;;21.00;99.90;;;;;;5088531;28;20051;-72
2022/07/18 07:23:08;;;;;;;13.65;5.53;;;21.30;99.90;;;;;;5090691;28;20036;-72
2022/07/18 07:25:35;;;;;;;9.48;5.10;;;21.40;99.90;;;;;;5092838;28;20016;-74
2022/07/18 07:28:02;;;;;;;11.88;5.07;;;21.60;99.90;;;;;;5087168;28;20534;-72
2022/07/18 07:30:27;;;;;;;7.88;4.80;;;21.80;99.90;;;;;;5085962;28;20020;-69
2022/07/18 07:32:53;;;;;;;10.95;4.50;;;22.10;99.90;;;;;;5084604;28;20469;-72
2022/07/18 07:35:20;;;;;;;7.90;4.00;;;22.10;99.90;;;;;;5082600;28;20032;-72
2022/07/18 07:37:55;;;;;;;11.23;4.57;;;22.30;99.20;;;;;;5087863;28;20031;-73
2022/07/18 07:40:24;;;;;;;9.40;4.10;;;22.40;99.90;;;;;;5093440;28;20041;-73
2022/07/18 07:42:50;;;;;;;9.05;4.20;;;22.70;98.50;;;;;;5086830;28;20425;-73
2022/07/18 07:45:16;;;;;;;7.60;3.75;;;22.80;99.90;;;;;;5088406;28;20023;-73
2022/07/18 07:47:42;;;;;;;7.43;4.00;;;22.80;99.90;;;;;;5084784;28;20024;-71
2022/07/18 07:50:10;;;;;;;7.72;4.25;;;23.00;99.90;;;;;;5086581;28;20025;-71
2022/07/18 07:52:37;;;;;;;9.70;4.05;;;23.20;99.90;;;;;;5090129;27;20039;-70
2022/07/18 07:55:04;;;;;;;6.88;3.60;;;23.40;99.90;;;;;;5081812;28;20587;-73
2022/07/18 07:57:29;;;;;;;7.00;3.45;;;23.40;99.90;;;;;;5089636;28;20044;-70
2022/07/18 07:59:55;;;;;;;9.07;3.83;;;23.50;97.10;;;;;;5078503;28;20020;-72
2022/07/18 08:02:22;;;;;;;6.35;3.35;;;23.70;98.60;;;;;;5088193;28;20480;-73
2022/07/18 08:04:49;;;;;;;8.40;3.20;;;24.10;94.30;;;;;;5092966;28;20061;-73
2022/07/18 08:07:15;;;;;;;9.30;3.28;;;24.20;97.20;;;;;;5088867;28;20033;-72
2022/07/18 08:09:41;;;;;;;5.97;3.00;;;24.30;98.60;;;;;;5090017;28;20027;-73
2022/07/18 08:12:07;;;;;;;6.00;2.22;;;24.40;97.70;;;;;;5082905;28;20509;-72
2022/07/18 08:14:33;;;;;;;5.95;2.80;;;24.60;93.70;;;;;;5089898;28;20032;-73
2022/07/18 08:16:59;;;;;;;7.32;2.40;;;24.70;92.80;;;;;;5084174;28;20028;-73
2022/07/18 08:19:24;;;;;;;4.30;2.60;;;24.90;92.00;;;;;;5085708;28;20029;-72
2022/07/18 08:21:50;;;;;;;8.35;2.95;;;25.10;91.40;;;;;;5087710;28;20396;-72
2022/07/18 08:24:16;;;;;;;5.20;2.40;;;25.30;90.20;;;;;;5086295;28;20172;-72
2022/07/18 08:26:41;;;;;;;5.25;2.72;;;25.50;90.40;;;;;;5084813;28;20020;-72
2022/07/18 08:29:07;;;;;;;4.38;2.22;;;25.60;92.20;;;;;;5088356;28;20053;-73
2022/07/18 08:31:33;;;;;;;7.47;2.35;;;25.80;91.70;;;;;;5086581;28;20027;-73
2022/07/18 08:33:59;;;;;;;4.03;2.38;;;26.00;92.20;;;;;;5078781;28;20077;-74
2022/07/18 08:36:26;;;;;;;6.18;2.67;;;26.10;90.70;;;;;;5083034;28;20021;-73
2022/07/18 08:38:51;;;;;;;3.78;2.17;;;26.20;90.60;;;;;;5091022;28;20461;-72
2022/07/18 08:41:18;;;;;;;7.15;2.60;;;26.30;90.90;;;;;;5088779;28;20023;-72
2022/07/18 08:43:45;;;;;;;2.88;2.00;;;26.50;91.00;;;;;;5081461;28;20023;-73
2022/07/18 08:46:12;;;;;;;3.35;1.90;;;26.80;88.70;;;;;;5080954;28;20096;-73
2022/07/18 08:48:40;;;;;;;4.57;2.30;;;26.80;91.80;;;;;;5089657;28;20028;-73
2022/07/18 08:51:05;;;;;;;3.38;2.15;;;27.00;88.10;;;;;;5086360;28;20177;-73
2022/07/18 08:53:33;;;;;;;3.30;2.22;;;27.10;90.30;;;;;;5081604;28;20508;-73
2022/07/18 08:55:59;;;;;;;7.13;2.28;;;27.20;88.50;;;;;;5082782;28;20035;-71
2022/07/18 08:58:26;;;;;;;5.85;2.22;;;27.30;86.30;;;;;;5084397;28;20035;-72
2022/07/18 09:00:52;;;;;;;9.60;2.40;;;27.50;87.80;;;;;;5080502;28;20028;-72
2022/07/18 09:03:18;;;;;;;7.80;2.30;;;27.70;85.00;;;;;;5084483;28;20402;-72
2022/07/18 09:05:43;;;;;;;4.60;2.10;;;27.80;89.80;;;;;;5090550;28;20025;-73
2022/07/18 09:08:11;;;;;;;4.30;1.85;;;28.00;83.70;;;;;;5079066;28;20025;-72
2022/07/18 09:10:53;;;;;;;1.70;1.60;;;28.10;83.50;;;;;;5082521;28;20020;-72
2022/07/18 09:13:22;;;;;;;4.68;1.67;;;28.30;82.60;;;;;;5081820;28;20029;-73
2022/07/18 09:15:57;;;;;;;5.47;1.70;;;28.40;84.10;;;;;;5085592;28;20031;-73
2022/07/18 09:18:28;;;;;;;2.83;1.48;;;28.50;84.90;;;;;;5087427;28;20074;-73
2022/07/18 09:21:03;;;;;;;3.95;1.77;;;28.50;82.80;;;;;;5087512;28;20020;-72
2022/07/18 09:23:33;;;;;;;2.78;1.58;;;28.60;82.90;;;;;;5087769;28;20043;-73
2022/07/18 09:26:01;;;;;;;2.47;1.20;;;28.90;82.60;;;;;;5077338;28;20062;-73
2022/07/18 09:28:52;;;;;;;5.30;1.50;;;29.00;80.10;;;;;;5088743;28;20032;-73
2022/07/18 09:31:24;;;;;;;5.72;1.65;;;29.10;79.40;;;;;;5084177;28;20021;-72
2022/07/18 09:34:00;;;;;;;1.75;1.58;;;29.30;77.40;;;;;;5081604;28;20020;-73
2022/07/18 09:36:27;;;;;;;2.80;1.80;;;29.50;77.10;;;;;;5080075;28;20107;-73
2022/07/18 09:38:53;;;;;;;4.47;1.75;;;29.70;78.70;;;;;;5091361;28;20028;-73
2022/07/18 09:41:27;;;;;;;2.75;1.60;;;29.70;75.20;;;;;;5082582;28;20024;-73
2022/07/18 09:43:52;;;;;;;3.40;1.63;;;29.90;81.00;;;;;;5076345;28;20032;-73
2022/07/18 09:46:18;;;;;;;3.75;1.80;;;30.00;79.50;;;;;;5080566;28;20017;-73
2022/07/18 09:48:44;;;;;;;3.75;1.83;;;30.00;74.70;;;;;;5083966;28;20032;-73
2022/07/18 09:51:10;;;;;;;3.83;1.83;;;30.20;76.90;;;;;;5084333;28;20078;-73
2022/07/18 09:53:39;;;;;;;3.72;1.50;;;30.30;77.70;;;;;;5088298;28;20040;-73
2022/07/18 09:56:07;;;;;;;2.58;1.80;;;30.40;76.40;;;;;;5079013;28;20039;-73
2022/07/18 09:58:38;;;;;;;4.82;2.20;;;30.60;74.40;;;;;;5085440;28;20036;-74
2022/07/18 10:01:07;;;;;;;1.90;1.70;;;30.70;74.40;;;;;;5080198;28;20017;-74
2022/07/18 10:03:33;;;;;;;4.20;1.83;;;30.90;72.70;;;;;;5087463;28;20027;-74
2022/07/18 10:06:00;;;;;;;2.20;1.58;;;31.20;73.70;;;;;;5087269;28;20052;-74
2022/07/18 10:08:28;;;;;;;4.78;1.58;;;31.30;72.00;;;;;;5085381;28;20138;-74
2022/07/18 10:10:56;;;;;;;3.40;1.50;;;31.40;72.00;;;;;;5081542;28;20021;-75
2022/07/18 10:13:23;;;;;;;1.83;1.50;;;31.60;73.00;;;;;;5081147;28;20024;-74
2022/07/18 10:15:50;;;;;;;3.35;1.60;;;31.60;75.90;;;;;;5081632;28;20381;-74
2022/07/18 10:18:24;;;;;;;4.50;1.73;;;31.70;74.60;;;;;;5090461;28;20437;-74
2022/07/18 10:21:02;;;;;;;7.10;1.83;;;31.70;72.40;;;;;;5081416;28;20032;-72
2022/07/18 10:23:39;;;;;;;2.90;1.35;;;31.60;73.60;;;;;;5078837;28;20512;-73
2022/07/18 10:26:13;;;;;;;4.13;1.40;;;31.70;70.10;;;;;;5077340;28;20024;-73
2022/07/18 10:28:59;;;;;;;2.78;1.90;;;31.80;70.90;;;;;;5090994;28;20078;-73
2022/07/18 10:31:33;;;;;;;7.90;1.50;;;31.90;69.30;;;;;;5083316;28;20027;-74
2022/07/18 10:34:09;;;;;;;3.40;1.60;;;32.00;69.30;;;;;;5074076;28;20021;-73
2022/07/18 10:36:54;;;;;;;1.70;1.48;;;32.10;69.30;;;;;;5080392;28;20069;-73
2022/07/18 10:39:31;;;;;;;5.35;1.80;;;32.20;71.70;;;;;;5090146;28;20078;-74
2022/07/18 10:42:02;;;;;;;2.67;1.15;;;31.90;69.30;;;;;;5085840;28;20500;-75
2022/07/18 10:44:31;;;;;;;3.25;1.33;;;32.00;70.90;;;;;;5080637;28;20484;-73
2022/07/18 10:47:02;;;;;;;5.55;1.33;;;32.10;70.70;;;;;;5081677;28;20081;-73
2022/07/18 10:49:47;;;;;;;2.27;2.07;;;32.10;69.70;;;;;;5085862;28;20038;-73
2022/07/18 10:52:32;;;;;;;1.88;1.50;;;32.40;70.00;;;;;;5082017;28;20028;-73
2022/07/18 10:55:16;;;;;;;3.30;1.80;;;32.50;70.80;;;;;;5075249;28;20039;-73
2022/07/18 10:57:49;;;;;;;2.78;1.60;;;32.60;70.70;;;;;;5080492;28;20501;-73
2022/07/18 11:00:15;;;;;;;3.75;1.80;;;32.60;67.70;;;;;;5075981;28;20104;-73
2022/07/18 11:02:45;;;;;;;3.00;1.45;;;32.60;71.00;;;;;;5077168;28;20117;-73
2022/07/18 11:05:23;;;;;;;4.05;1.63;;;32.60;69.40;;;;;;5085888;28;20016;-73
2022/07/18 11:08:01;;;;;;;6.40;2.00;;;32.60;64.90;;;;;;5082482;28;20048;-73
2022/07/18 11:10:50;;;;;;;2.42;1.42;;;32.70;64.40;;;;;;5085472;28;20024;-73
2022/07/18 11:13:25;;;;;;;3.40;1.85;;;32.90;66.40;;;;;;5084264;28;20020;-72
2022/07/18 11:16:12;;;;;;;4.65;1.60;;;33.10;63.90;;;;;;5074735;28;20028;-73
2022/07/18 11:18:43;;;;;;;3.65;1.65;;;33.10;65.30;;;;;;5086925;28;20472;-73
2022/07/18 11:21:30;;;;;;;5.90;1.80;;;33.30;69.70;;;;;;5081655;28;20024;-73
2022/07/18 11:24:12;;;;;;;2.13;1.50;;;33.40;65.10;;;;;;5077088;28;20554;-72
2022/07/18 11:26:43;;;;;;;3.90;1.75;;;33.60;69.40;;;;;;5077617;28;20384;-73
2022/07/18 11:29:11;;;;;;;3.88;2.03;;;33.70;65.00;;;;;;5085895;28;20012;-73
2022/07/18 11:31:49;;;;;;;3.47;1.50;;;33.60;62.40;;;;;;5081442;28;20082;-72
2022/07/18 11:34:16;;;;;;;4.90;1.83;;;33.70;64.20;;;;;;5080902;28;20021;-72
2022/07/18 11:36:43;;;;;;;2.50;1.50;;;33.60;63.30;;;;;;5080388;28;20388;-73
2022/07/18 11:39:09;;;;;;;2.03;1.40;;;33.80;63.30;;;;;;5091697;28;20016;-72
2022/07/18 11:41:40;;;;;;;2.22;1.75;;;33.90;62.10;;;;;;5089565;28;20488;-73
2022/07/18 11:44:20;;;;;;;2.88;1.70;;;34.00;65.90;;;;;;5076860;28;20436;-72
2022/07/18 11:46:45;;;;;;;5.35;1.80;;;34.10;63.70;;;;;;5082981;28;20028;-73
2022/07/18 11:49:12;;;;;;;4.18;1.63;;;34.30;60.80;;;;;;5082593;28;20373;-74
2022/07/18 11:51:43;;;;;;;3.70;1.55;;;34.30;61.30;;;;;;5084896;28;20032;-73
2022/07/18 11:54:10;;;;;;;3.33;1.55;;;34.30;61.30;;;;;;5079049;28;20021;-73
2022/07/18 11:56:48;;;;;;;4.72;1.58;;;34.30;62.50;;;;;;5080437;28;20032;-73
2022/07/18 11:59:14;;;;;;;1.40;1.30;;;34.40;61.10;;;;;;5082721;28;20029;-73
2022/07/18 12:01:40;;;;;;;3.65;1.70;;;34.40;62.70;;;;;;5078902;28;20029;-73
2022/07/18 12:04:06;;;;;;;3.88;2.00;;;34.40;63.50;;;;;;5087047;28;20028;-73
2022/07/18 12:06:32;;;;;;;5.70;1.73;;;34.60;60.90;;;;;;5087936;28;20027;-73
2022/07/18 12:09:03;;;;;;;4.82;2.10;;;34.60;59.20;;;;;;5084448;28;20481;-73
2022/07/18 12:11:32;;;;;;;5.28;1.90;;;34.70;59.90;;;;;;5087967;28;20023;-73
2022/07/18 12:14:00;;;;;;;1.58;1.30;;;34.80;60.30;;;;;;5075562;28;20393;-73
2022/07/18 12:16:29;;;;;;;2.08;1.50;;;34.80;60.90;;;;;;5082778;28;20029;-73
2022/07/18 12:18:58;;;;;;;4.70;1.70;;;34.80;61.00;;;;;;5085062;28;20506;-74
2022/07/18 12:21:37;;;;;;;1.73;1.40;;;34.90;61.10;;;;;;5093469;28;20477;-74
2022/07/18 12:24:28;;;;;;;2.03;1.48;;;34.90;62.50;;;;;;5083202;28;20021;-74
2022/07/18 12:27:19;;;;;;;3.80;1.70;;;34.90;58.90;;;;;;5065711;28;20051;-74
2022/07/18 12:30:19;;;;;;;3.10;1.65;;;35.00;58.40;;;;;;5086691;28;20016;-74
2022/07/18 12:32:53;;;;;;;2.65;1.88;;;35.00;58.50;;;;;;5084285;28;20032;-74
2022/07/18 12:35:21;;;;;;;2.38;1.60;;;34.90;59.60;;;;;;5079545;28;20082;-73
2022/07/18 12:38:18;;;;;;;2.97;1.67;;;35.00;60.80;;;;;;5102844;28;20028;-74
2022/07/18 12:40:53;;;;;;;1.60;1.38;;;34.80;58.20;;;;;;5084077;28;20039;-74
2022/07/18 12:43:30;;;;;;;7.45;1.90;;;35.00;57.20;;;;;;5084654;28;20028;-74
2022/07/18 12:45:59;;;;;;;3.97;1.55;;;35.10;58.10;;;;;;5086605;28;20019;-73
2022/07/18 12:48:27;;;;;;;2.58;1.67;;;35.10;57.80;;;;;;5089453;28;20025;-73
2022/07/18 12:51:04;;;;;;;4.40;1.98;;;35.30;57.80;;;;;;5087781;28;20017;-74
2022/07/18 12:53:31;;;;;;;4.85;1.80;;;35.20;56.00;;;;;;5079234;28;20027;-74